Startpagina
METAR-TAF:

METAR-TAF

Vliegvelden :

Skagway, Alaska, Verenigde Staten

breedte: 59-28N, lengte: 135-18W, hoogte: 16 m

Actueel weer

Dit bericht is 1 uur en het 4 minuten geleden gemaakt, om 18:53 UTC
Wind 13 kt uit het noordoosten
Temperatuur 4°C
Vochtigheid 32%
Druk 1036 hPa
Zicht: 16.1 km
Onbewolkt

METAR: PAGY 101853Z AUTO 05013KT 10SM CLR 04/M11 A3060 RMK SLP360 T00391111 TSNO VIA AUTODIAL

Tijdstip: 11:57 (19:57 UTC)

Verwachting

Dit bericht is 2 uur en het 31 minuten geleden gemaakt, om 17:26 UTC
Verwachting geldig van 10 om 18 UTC tot 11 om 18 UTC
Wind 9 kt uit het noordnoordoosten
Zicht: 10 km
Onbewolkt
Van 10 om 2200 UTC
Wind 11 kt uit het zuidwesten
Zicht: 10 km
Weinig wolken op 8000 ft
Van 11 om 0500 UTC
Wind 3 kt uit het noordnoordoosten
Zicht: 10 km
Onbewolkt

TAF: PAGY 101726Z 1018/1118 03009KT P6SM SKC FM102200 22011KT P6SM FEW080 FM110500 02003KT P6SM SKC AMD LTD TO CLD VIS AND WIND

Waarnemingen en weersverwachtingen van meer dan 4000 vliegvelden (METAR en TAF).

De beschikbare stations zijn de gele en rode punten op de kaart.

Ga met uw muis naar het station om de naam te zien.

Klik dan om waarnemingen en weersverwachtingen te zien.

kaart wijzigen: klik op de groene knoppen met een zwart kruis om in te zoomen, op de groene knop met een streepje om uit te zoomen of op de groene pijlen voor aangrenzende kaarten.


METAR-TAF: